Ouarzazate, Morocco
Current Conditions -  °F | °C
As of 7:00 PM on Monday 20 Oct 2014 (Local Time) from GMMZ Reporting Station
Clear Clear  
Wind Chill: 81°   Ceiling: Unl
Heat Index: 81°   Visibility: 6mi
Dew Point: 21°   Wind: 0mph
Humidity: 11%   Direction: NA
Pressure: 30.24"   Gusts: NA
Location:  30.92°N, 6.9°W
Report Text: GMMZ 201800Z 00000KT CAVOK 27/M06 Q1024 NOSIG
Loading
Personal Weather Stations






























Interactive Weather Map
Tropical Storm Tracking
New forecast layout! Learn more

10-Day Weather Forecast

Advertisements
Track Severe Weather on mobile